createdAt,value
2023-05-20T00:01:03.584Z,11.10
2023-05-20T00:03:31.696Z,11.10
2023-05-20T00:05:59.697Z,11.10
2023-05-20T00:08:27.679Z,11.00
2023-05-20T00:10:55.648Z,11.00
2023-05-20T00:13:24.202Z,11.00
2023-05-20T00:15:53.413Z,11.00
2023-05-20T00:18:23.036Z,10.90
2023-05-20T00:20:50.982Z,10.90
2023-05-20T00:23:18.920Z,10.90
2023-05-20T00:25:46.917Z,10.90
2023-05-20T00:28:14.897Z,10.80
2023-05-20T00:30:43.335Z,10.80
2023-05-20T00:33:11.319Z,10.80
2023-05-20T00:35:40.672Z,10.80
2023-05-20T00:38:08.668Z,10.80
2023-05-20T00:40:36.604Z,10.80
2023-05-20T00:43:04.743Z,10.80
2023-05-20T00:45:33.574Z,10.70
2023-05-20T00:48:04.040Z,10.70
2023-05-20T00:50:32.992Z,10.70
2023-05-20T00:53:02.583Z,10.60
2023-05-20T00:55:30.708Z,10.60
2023-05-20T00:57:58.869Z,10.60
2023-05-20T01:00:26.883Z,10.60
2023-05-20T01:02:56.834Z,10.60
2023-05-20T01:05:24.995Z,10.60
2023-05-20T01:07:53.037Z,10.60
2023-05-20T01:10:24.071Z,10.60
2023-05-20T01:12:57.307Z,10.50
2023-05-20T01:15:28.262Z,10.50
2023-05-20T01:18:02.465Z,10.50
2023-05-20T01:20:32.489Z,10.50
2023-05-20T01:23:02.572Z,10.50
2023-05-20T01:25:30.831Z,10.40
2023-05-20T01:27:59.108Z,10.40
2023-05-20T01:30:33.868Z,10.40
2023-05-20T01:33:06.991Z,10.30
2023-05-20T01:35:36.295Z,10.30
2023-05-20T01:38:07.306Z,10.30
2023-05-20T01:40:36.086Z,10.30
2023-05-20T01:43:05.525Z,10.20
2023-05-20T01:45:34.316Z,10.20
2023-05-20T01:48:03.436Z,10.20
2023-05-20T01:50:31.444Z,10.20
2023-05-20T01:52:59.444Z,10.20
2023-05-20T01:55:28.861Z,10.20
2023-05-20T01:57:56.996Z,10.20
2023-05-20T02:00:25.335Z,10.20
2023-05-20T02:02:53.333Z,10.10
2023-05-20T02:05:21.385Z,10.10
2023-05-20T02:07:49.410Z,10.20
2023-05-20T02:10:17.511Z,10.10
2023-05-20T02:12:47.874Z,10.10
2023-05-20T02:15:15.964Z,10.10
2023-05-20T02:17:44.552Z,10.10
2023-05-20T02:20:13.941Z,10.10
2023-05-20T02:22:42.073Z,10.10
2023-05-20T02:25:10.994Z,10.10
2023-05-20T02:27:40.650Z,10.10
2023-05-20T02:30:10.976Z,10.10
2023-05-20T02:32:39.028Z,10.10
2023-05-20T02:35:07.693Z,10.00
2023-05-20T02:37:35.827Z,10.00
2023-05-20T02:40:04.613Z,10.00
2023-05-20T02:42:32.770Z,10.00
2023-05-20T02:45:00.825Z,9.90
2023-05-20T02:47:30.356Z,9.90
2023-05-20T02:49:58.546Z,9.90
2023-05-20T02:52:26.596Z,9.90
2023-05-20T02:54:54.667Z,9.90
2023-05-20T02:57:22.705Z,9.90
2023-05-20T02:59:50.681Z,9.80
2023-05-20T03:02:18.770Z,9.80
2023-05-20T03:04:48.103Z,9.80
2023-05-20T03:07:19.436Z,9.80
2023-05-20T03:09:47.494Z,9.80
2023-05-20T03:12:15.522Z,9.80
2023-05-20T03:14:43.510Z,9.80
2023-05-20T03:17:12.351Z,9.80
2023-05-20T03:19:40.508Z,9.80
2023-05-20T03:22:10.113Z,9.70
2023-05-20T03:24:38.368Z,9.70
2023-05-20T03:27:06.836Z,9.70
2023-05-20T03:29:34.810Z,9.70
2023-05-20T03:32:02.822Z,9.70
2023-05-20T03:34:31.159Z,9.70
2023-05-20T03:37:00.281Z,9.70
2023-05-20T03:39:29.600Z,9.70
2023-05-20T03:41:57.536Z,9.70
2023-05-20T03:44:25.747Z,9.70
2023-05-20T03:46:53.813Z,9.70
2023-05-20T03:49:21.795Z,9.70
2023-05-20T03:51:49.754Z,9.70
2023-05-20T03:54:19.350Z,9.70
2023-05-20T03:56:49.419Z,9.70
2023-05-20T03:59:17.866Z,9.70
2023-05-20T04:01:46.244Z,9.70
2023-05-20T04:04:14.288Z,9.80
2023-05-20T04:06:42.269Z,9.80
2023-05-20T04:09:10.236Z,9.80
2023-05-20T04:11:38.200Z,9.80
2023-05-20T04:14:07.514Z,9.80
2023-05-20T04:16:37.344Z,9.90
2023-05-20T04:19:05.484Z,9.90
2023-05-20T04:21:33.527Z,9.90
2023-05-20T04:24:01.502Z,9.90
2023-05-20T04:26:29.871Z,10.00
2023-05-20T04:28:59.024Z,10.00
2023-05-20T04:31:28.429Z,10.10
2023-05-20T04:33:56.710Z,10.10
2023-05-20T04:36:28.810Z,10.20
2023-05-20T04:38:57.245Z,10.20
2023-05-20T04:41:25.236Z,10.30
2023-05-20T04:43:53.809Z,10.30
2023-05-20T04:46:21.808Z,10.30
2023-05-20T04:48:51.155Z,10.40
2023-05-20T04:51:19.177Z,10.40
2023-05-20T04:53:47.158Z,10.40
2023-05-20T04:56:15.400Z,10.40
2023-05-20T04:58:43.537Z,10.40
2023-05-20T05:01:11.542Z,10.50
2023-05-20T05:03:39.507Z,10.50
2023-05-20T05:06:08.901Z,10.60
2023-05-20T05:08:36.928Z,10.60
2023-05-20T05:11:06.898Z,10.70
2023-05-20T05:13:34.863Z,10.80
2023-05-20T05:16:03.904Z,10.80
2023-05-20T05:18:31.894Z,10.90
2023-05-20T05:21:01.690Z,11.00
2023-05-20T05:23:31.370Z,11.00
2023-05-20T05:25:59.767Z,11.10
2023-05-20T05:28:28.115Z,11.10
2023-05-20T05:30:56.968Z,11.20
2023-05-20T05:33:25.067Z,11.20
2023-05-20T05:35:53.038Z,11.30
2023-05-20T05:38:21.070Z,11.30
2023-05-20T05:40:50.412Z,11.30
2023-05-20T05:43:18.346Z,11.40
2023-05-20T05:45:46.348Z,11.40
2023-05-20T05:48:14.329Z,11.50
2023-05-20T05:50:45.750Z,11.60
2023-05-20T05:53:13.995Z,11.70
2023-05-20T05:55:41.942Z,11.70
2023-05-20T05:58:11.258Z,11.70
2023-05-20T06:00:39.334Z,11.80
2023-05-20T06:03:07.416Z,11.80
2023-05-20T06:05:35.634Z,11.90
2023-05-20T06:08:03.715Z,11.90
2023-05-20T06:10:31.710Z,12.00
2023-05-20T06:12:59.711Z,12.00
2023-05-20T06:15:29.075Z,12.00
2023-05-20T06:17:57.117Z,12.00
2023-05-20T06:20:25.153Z,12.10
2023-05-20T06:22:53.199Z,12.10
2023-05-20T06:25:23.031Z,12.20
2023-05-20T06:27:51.229Z,12.20
2023-05-20T06:30:19.571Z,12.20
2023-05-20T06:32:49.005Z,12.30
2023-05-20T06:35:17.242Z,12.40
2023-05-20T06:37:45.409Z,12.40
2023-05-20T06:40:14.116Z,12.50
2023-05-20T06:42:42.092Z,12.60
2023-05-20T06:45:10.852Z,12.60
2023-05-20T06:47:38.996Z,12.70
2023-05-20T06:50:09.203Z,12.80
2023-05-20T06:52:37.205Z,12.80
2023-05-20T06:55:05.595Z,13.00
2023-05-20T06:57:35.951Z,13.10
2023-05-20T07:00:04.287Z,13.20
2023-05-20T07:02:32.277Z,13.30
2023-05-20T07:05:00.385Z,13.30
2023-05-20T07:07:29.730Z,13.40
2023-05-20T07:09:58.400Z,13.60
2023-05-20T07:12:28.348Z,13.60
2023-05-20T07:14:56.286Z,13.70
2023-05-20T07:17:25.525Z,13.80
2023-05-20T07:19:53.618Z,13.90
2023-05-20T07:22:21.573Z,14.00
2023-05-20T07:24:50.923Z,14.10
2023-05-20T07:27:18.890Z,14.20
2023-05-20T07:29:46.978Z,14.30
2023-05-20T07:32:14.958Z,14.30
2023-05-20T07:34:42.946Z,14.40
2023-05-20T07:37:12.721Z,14.50
2023-05-20T07:39:40.784Z,14.60
2023-05-20T07:42:10.119Z,14.60
2023-05-20T07:44:38.150Z,14.70
2023-05-20T07:47:06.481Z,14.70
2023-05-20T07:49:34.499Z,14.80
2023-05-20T07:52:03.181Z,14.80
2023-05-20T07:54:31.315Z,14.90
2023-05-20T07:57:00.339Z,14.90
2023-05-20T07:59:29.717Z,15.00
2023-05-20T08:01:57.770Z,15.10
2023-05-20T08:06:55.486Z,15.20
2023-05-20T08:09:23.436Z,15.30
2023-05-20T08:11:51.421Z,15.40
2023-05-20T08:14:19.383Z,15.40
2023-05-20T08:16:48.836Z,15.60
2023-05-20T08:19:16.910Z,15.60
2023-05-20T08:21:44.996Z,15.70
2023-05-20T08:24:12.962Z,15.80
2023-05-20T08:26:40.956Z,15.90
2023-05-20T08:29:09.568Z,16.00
2023-05-20T08:31:37.582Z,16.00
2023-05-20T08:34:06.970Z,16.20
2023-05-20T08:36:34.926Z,16.20
2023-05-20T08:39:02.856Z,16.30
2023-05-20T08:41:30.965Z,16.40
2023-05-20T08:44:01.920Z,16.40
2023-05-20T08:46:30.039Z,16.40
2023-05-20T08:48:59.339Z,16.40
2023-05-20T08:51:29.538Z,16.40
2023-05-20T08:53:57.508Z,16.40
2023-05-20T08:56:28.641Z,16.40
2023-05-20T08:58:58.104Z,16.40
2023-05-20T09:01:26.900Z,16.40
2023-05-20T09:03:55.076Z,16.50
2023-05-20T09:06:24.116Z,16.50
2023-05-20T09:08:53.475Z,16.60
2023-05-20T09:11:23.032Z,16.80
2023-05-20T09:13:51.560Z,16.80
2023-05-20T09:16:19.714Z,16.80
2023-05-20T09:18:48.024Z,16.90
2023-05-20T09:21:16.334Z,17.00
2023-05-20T09:23:49.150Z,17.00
2023-05-20T09:26:20.548Z,16.90
2023-05-20T09:28:48.541Z,16.90
2023-05-20T09:31:16.604Z,16.90
2023-05-20T09:33:45.221Z,16.90
2023-05-20T09:36:16.606Z,17.00
2023-05-20T09:38:45.214Z,17.00
2023-05-20T09:41:15.299Z,17.10
2023-05-20T09:43:45.674Z,17.30
2023-05-20T09:46:14.383Z,17.40
2023-05-20T09:48:42.523Z,17.40
2023-05-20T09:51:13.334Z,17.30
2023-05-20T09:53:43.020Z,17.20
2023-05-20T09:56:13.950Z,17.20
2023-05-20T09:58:45.584Z,17.20
2023-05-20T10:01:13.641Z,17.20
2023-05-20T10:03:44.067Z,17.10
2023-05-20T10:06:29.937Z,17.10
2023-05-20T10:09:12.418Z,17.20
2023-05-20T10:11:48.198Z,17.20
2023-05-20T10:14:33.196Z,17.20
2023-05-20T10:17:10.779Z,17.20
2023-05-20T10:19:38.846Z,17.10
2023-05-20T10:22:08.532Z,17.00
2023-05-20T10:24:38.113Z,17.00
2023-05-20T10:27:09.172Z,16.90
2023-05-20T10:32:27.894Z,16.90
2023-05-20T10:35:00.588Z,17.00
2023-05-20T10:37:30.158Z,17.20
2023-05-20T10:40:08.706Z,17.30
2023-05-20T10:42:36.812Z,17.50
2023-05-20T10:45:08.045Z,17.50
2023-05-20T10:47:36.872Z,17.50
2023-05-20T10:50:06.176Z,17.40
2023-05-20T10:52:35.282Z,17.40
2023-05-20T10:55:04.930Z,17.40
2023-05-20T10:57:34.033Z,17.50
2023-05-20T11:00:02.131Z,17.60
2023-05-20T11:02:32.113Z,17.60
2023-05-20T11:05:00.274Z,17.60
2023-05-20T11:07:28.982Z,17.60
2023-05-20T11:09:57.012Z,17.60
2023-05-20T11:12:26.498Z,17.70
2023-05-20T11:14:54.879Z,17.90
2023-05-20T11:17:22.897Z,17.90
2023-05-20T11:19:52.344Z,17.90
2023-05-20T11:22:20.625Z,17.90
2023-05-20T11:24:48.671Z,17.80
2023-05-20T11:27:16.772Z,17.70
2023-05-20T11:29:44.874Z,17.60
2023-05-20T11:32:13.725Z,17.60
2023-05-20T11:34:42.653Z,17.50
2023-05-20T11:37:12.746Z,17.40
2023-05-20T11:39:40.910Z,17.30
2023-05-20T11:42:08.975Z,17.40
2023-05-20T11:44:37.079Z,17.40
2023-05-20T11:47:05.266Z,17.40
2023-05-20T11:49:40.891Z,17.40
2023-05-20T11:52:12.579Z,17.30
2023-05-20T11:54:40.521Z,17.30
2023-05-20T11:57:08.644Z,17.30
2023-05-20T11:59:36.972Z,17.30
2023-05-20T12:02:05.024Z,17.20
2023-05-20T12:04:33.034Z,17.20
2023-05-20T12:07:01.079Z,17.20
2023-05-20T12:09:30.468Z,17.20
2023-05-20T12:12:00.251Z,17.20
2023-05-20T12:14:28.213Z,17.20
2023-05-20T12:16:56.167Z,17.20
2023-05-20T12:19:24.216Z,17.20
2023-05-20T12:21:52.777Z,17.20
2023-05-20T12:24:21.222Z,17.20
2023-05-20T12:26:50.780Z,17.10
2023-05-20T12:29:18.743Z,17.10
2023-05-20T12:31:46.781Z,17.10
2023-05-20T12:34:14.855Z,17.00
2023-05-20T12:36:42.881Z,16.90
2023-05-20T12:39:11.085Z,16.90
2023-05-20T12:41:39.164Z,16.90
2023-05-20T12:44:08.508Z,16.90
2023-05-20T12:46:36.837Z,16.90
2023-05-20T12:49:05.062Z,16.90
2023-05-20T12:51:33.022Z,17.00
2023-05-20T12:54:01.020Z,17.00
2023-05-20T12:56:29.171Z,17.00
2023-05-20T12:58:58.003Z,17.10
2023-05-20T13:01:27.560Z,17.10
2023-05-20T13:03:55.656Z,17.00
2023-05-20T13:06:23.745Z,17.00
2023-05-20T13:08:51.777Z,17.00
2023-05-20T13:11:19.795Z,17.00
2023-05-20T13:13:47.745Z,17.00
2023-05-20T13:16:16.873Z,17.10
2023-05-20T13:18:46.499Z,17.10
2023-05-20T13:21:14.493Z,17.10
2023-05-20T13:23:46.093Z,17.10
2023-05-20T13:26:14.105Z,17.10
2023-05-20T13:28:42.114Z,17.10
2023-05-20T13:31:10.250Z,17.10
2023-05-20T13:33:38.302Z,17.20
2023-05-20T13:36:08.172Z,17.20
2023-05-20T13:38:37.440Z,17.20
2023-05-20T13:41:05.796Z,17.10
2023-05-20T13:43:33.822Z,17.10
2023-05-20T13:46:01.974Z,17.10
2023-05-20T13:48:30.213Z,17.10
2023-05-20T13:50:58.164Z,17.20
2023-05-20T13:53:27.499Z,17.20
2023-05-20T13:55:55.462Z,17.10
2023-05-20T13:58:23.426Z,17.10
2023-05-20T14:00:51.654Z,17.10
2023-05-20T14:03:19.750Z,17.10
2023-05-20T14:05:47.923Z,17.20
2023-05-20T14:08:16.019Z,17.20
2023-05-20T14:10:45.389Z,17.30
2023-05-20T14:13:13.398Z,17.30
2023-05-20T14:15:41.446Z,17.30
2023-05-20T14:18:09.490Z,17.30
2023-05-20T14:20:37.638Z,17.40
2023-05-20T14:23:05.753Z,17.40
2023-05-20T14:25:33.763Z,17.40
2023-05-20T14:28:03.128Z,17.40
2023-05-20T14:30:31.130Z,17.40
2023-05-20T14:32:59.237Z,17.30
2023-05-20T14:35:27.175Z,17.40
2023-05-20T14:37:57.163Z,17.40
2023-05-20T14:40:25.218Z,17.40
2023-05-20T14:42:56.023Z,17.40
2023-05-20T14:45:25.371Z,17.40
2023-05-20T14:47:53.525Z,17.40
2023-05-20T14:50:21.660Z,17.40
2023-05-20T14:52:50.466Z,17.40
2023-05-20T14:55:18.428Z,17.40
2023-05-20T14:57:46.418Z,17.30
2023-05-20T15:00:14.881Z,17.30
2023-05-20T15:02:44.268Z,17.20
2023-05-20T15:05:12.653Z,17.20
2023-05-20T15:07:40.840Z,17.20
2023-05-20T15:10:11.673Z,17.10
2023-05-20T15:12:42.675Z,17.00
2023-05-20T15:15:11.264Z,17.00
2023-05-20T15:17:39.335Z,16.90
2023-05-20T15:20:10.420Z,16.90
2023-05-20T15:22:38.449Z,16.90
2023-05-20T15:25:07.005Z,16.90
2023-05-20T15:27:35.066Z,16.90
2023-05-20T15:30:03.274Z,16.90
2023-05-20T15:32:31.307Z,16.80
2023-05-20T15:34:59.968Z,16.90
2023-05-20T15:37:29.390Z,16.90
2023-05-20T15:39:57.424Z,16.90
2023-05-20T15:42:25.552Z,16.90
2023-05-20T15:44:53.667Z,16.80
2023-05-20T15:47:21.648Z,16.90
2023-05-20T15:49:49.651Z,16.90
2023-05-20T15:52:17.638Z,16.80
2023-05-20T15:54:47.019Z,16.80
2023-05-20T15:57:14.996Z,16.90
2023-05-20T15:59:43.066Z,17.00
2023-05-20T16:02:11.335Z,17.00
2023-05-20T16:04:39.498Z,17.10
2023-05-20T16:07:07.451Z,17.10
2023-05-20T16:09:35.571Z,17.10
2023-05-20T16:12:06.089Z,17.20
2023-05-20T16:14:34.059Z,17.20
2023-05-20T16:17:01.995Z,17.20
2023-05-20T16:19:30.018Z,17.10
2023-05-20T16:21:58.128Z,17.10
2023-05-20T16:24:26.238Z,17.00
2023-05-20T16:26:54.898Z,17.00
2023-05-20T16:29:24.212Z,17.00
2023-05-20T16:31:52.472Z,16.90
2023-05-20T16:34:20.721Z,16.90
2023-05-20T16:36:48.692Z,16.90
2023-05-20T16:39:17.029Z,16.90
2023-05-20T16:41:45.549Z,16.80
2023-05-20T16:44:13.626Z,16.80
2023-05-20T16:46:43.178Z,16.70
2023-05-20T16:49:11.283Z,16.70
2023-05-20T16:51:39.268Z,16.70
2023-05-20T16:54:08.168Z,16.70
2023-05-20T16:56:36.991Z,16.70
2023-05-20T16:59:05.089Z,16.70
2023-05-20T17:01:33.189Z,16.70
2023-05-20T17:04:02.673Z,16.60
2023-05-20T17:06:34.300Z,16.60
2023-05-20T17:09:04.536Z,16.60
2023-05-20T17:11:32.685Z,16.60
2023-05-20T17:14:00.835Z,16.50
2023-05-20T17:16:29.060Z,16.60
2023-05-20T17:18:58.534Z,16.50
2023-05-20T17:21:29.057Z,16.50
2023-05-20T17:23:57.058Z,16.50
2023-05-20T17:26:25.864Z,16.40
2023-05-20T17:28:53.878Z,16.40
2023-05-20T17:31:22.130Z,16.40
2023-05-20T17:33:50.300Z,16.40
2023-05-20T17:36:18.451Z,16.30
2023-05-20T17:38:49.773Z,16.30
2023-05-20T17:41:17.903Z,16.30
2023-05-20T17:43:46.257Z,16.30
2023-05-20T17:46:14.388Z,16.30
2023-05-20T17:48:42.590Z,16.30
2023-05-20T17:51:10.583Z,16.30
2023-05-20T17:53:38.571Z,16.20
2023-05-20T17:56:08.590Z,16.20
2023-05-20T17:58:36.584Z,16.10
2023-05-20T18:01:04.538Z,16.20
2023-05-20T18:03:32.608Z,16.10
2023-05-20T18:06:01.706Z,16.10
2023-05-20T18:08:29.704Z,16.10
2023-05-20T18:10:58.428Z,16.10
2023-05-20T18:13:27.726Z,16.10
2023-05-20T18:15:55.936Z,16.10
2023-05-20T18:18:23.979Z,16.00
2023-05-20T18:20:52.095Z,16.00
2023-05-20T18:23:20.075Z,16.00
2023-05-20T18:25:48.187Z,16.00
2023-05-20T18:28:16.460Z,16.00
2023-05-20T18:30:45.831Z,15.90
2023-05-20T18:33:13.892Z,15.90
2023-05-20T18:35:41.944Z,15.90
2023-05-20T18:38:09.922Z,15.80
2023-05-20T18:40:38.146Z,15.80
2023-05-20T18:43:06.297Z,15.80
2023-05-20T18:45:34.315Z,15.80
2023-05-20T18:48:05.034Z,15.80
2023-05-20T18:50:33.316Z,15.70
2023-05-20T18:53:01.457Z,15.70
2023-05-20T18:55:29.492Z,15.60
2023-05-20T18:57:57.480Z,15.50
2023-05-20T19:00:25.473Z,15.50
2023-05-20T19:02:53.476Z,15.50
2023-05-20T19:05:23.052Z,15.50
2023-05-20T19:07:51.147Z,15.50
2023-05-20T19:10:19.182Z,15.40
2023-05-20T19:12:47.154Z,15.40
2023-05-20T19:15:15.829Z,15.30
2023-05-20T19:17:43.878Z,15.30
2023-05-20T19:20:13.933Z,15.20
2023-05-20T19:22:43.270Z,15.10
2023-05-20T19:25:11.596Z,15.00
2023-05-20T19:27:39.671Z,15.00
2023-05-20T19:30:10.962Z,14.90
2023-05-20T19:32:39.413Z,14.90
2023-05-20T19:35:08.288Z,14.80
2023-05-20T19:37:36.420Z,14.70
2023-05-20T19:40:07.914Z,14.70
2023-05-20T19:42:36.051Z,14.60
2023-05-20T19:45:04.170Z,14.50
2023-05-20T19:47:32.231Z,14.50
2023-05-20T19:50:00.220Z,14.40
2023-05-20T19:52:28.203Z,14.40
2023-05-20T19:54:56.243Z,14.30
2023-05-20T19:57:25.831Z,14.30
2023-05-20T19:59:54.143Z,14.30
2023-05-20T20:02:22.171Z,14.20
2023-05-20T20:04:51.714Z,14.20
2023-05-20T20:07:19.685Z,14.20
2023-05-20T20:09:49.008Z,14.10
2023-05-20T20:12:16.976Z,14.10
2023-05-20T20:14:46.531Z,14.00
2023-05-20T20:17:16.720Z,14.00
2023-05-20T20:19:46.037Z,14.00
2023-05-20T20:22:13.969Z,14.00
2023-05-20T20:24:42.314Z,14.00
2023-05-20T20:27:10.522Z,13.90
2023-05-20T20:29:39.036Z,14.00
2023-05-20T20:32:09.134Z,14.00
2023-05-20T20:34:37.390Z,13.90
2023-05-20T20:37:06.796Z,13.90
2023-05-20T20:39:37.092Z,13.90
2023-05-20T20:42:05.465Z,13.80
2023-05-20T20:44:33.534Z,13.80
2023-05-20T20:47:04.008Z,13.70
2023-05-20T20:49:34.232Z,13.80
2023-05-20T20:52:02.462Z,13.80
2023-05-20T20:54:30.423Z,13.80
2023-05-20T20:56:59.890Z,13.70
2023-05-20T20:59:27.995Z,13.70
2023-05-20T21:01:57.682Z,13.60
2023-05-20T21:04:27.668Z,13.60
2023-05-20T21:06:59.005Z,13.60
2023-05-20T21:09:28.638Z,13.60
2023-05-20T21:11:57.064Z,13.60
2023-05-20T21:14:25.324Z,13.50
2023-05-20T21:16:53.336Z,13.50
2023-05-20T21:19:21.379Z,13.50
2023-05-20T21:21:49.343Z,13.50
2023-05-20T21:24:19.715Z,13.50
2023-05-20T21:26:47.654Z,13.40
2023-05-20T21:29:15.674Z,13.40
2023-05-20T21:31:43.615Z,13.40
2023-05-20T21:34:11.636Z,13.40
2023-05-20T21:36:39.600Z,13.40
2023-05-20T21:39:07.569Z,13.30
2023-05-20T21:41:36.945Z,13.30
2023-05-20T21:44:05.395Z,13.30
2023-05-20T21:46:33.365Z,13.30
2023-05-20T21:49:01.370Z,13.30
2023-05-20T21:51:29.303Z,13.30
2023-05-20T21:53:57.260Z,13.30
2023-05-20T21:56:26.315Z,13.30
2023-05-20T21:58:55.751Z,13.20
2023-05-20T22:01:23.734Z,13.20
2023-05-20T22:03:53.253Z,13.20
2023-05-20T22:06:21.986Z,13.20
2023-05-20T22:08:49.991Z,13.20
2023-05-20T22:11:19.694Z,13.20
2023-05-20T22:13:47.749Z,13.20
2023-05-20T22:16:17.122Z,13.10
2023-05-20T22:18:47.695Z,13.10
2023-05-20T22:21:15.716Z,13.10
2023-05-20T22:23:43.660Z,13.00
2023-05-20T22:26:11.622Z,13.00
2023-05-20T22:28:39.540Z,13.00
2023-05-20T22:31:07.541Z,13.00
2023-05-20T22:33:37.334Z,13.00
2023-05-20T22:36:05.777Z,13.00
2023-05-20T22:38:38.500Z,13.00
2023-05-20T22:41:06.550Z,13.00
2023-05-20T22:43:35.712Z,13.00
2023-05-20T22:46:04.017Z,13.00
2023-05-20T22:48:31.990Z,13.00
2023-05-20T22:51:03.759Z,12.90
2023-05-20T22:53:31.726Z,12.90
2023-05-20T22:55:59.885Z,12.90
2023-05-20T22:58:29.633Z,12.90
2023-05-20T23:00:59.513Z,12.80
2023-05-20T23:03:27.479Z,12.80
2023-05-20T23:05:55.425Z,12.90
2023-05-20T23:08:24.726Z,12.80
2023-05-20T23:10:52.712Z,12.80
2023-05-20T23:13:20.935Z,12.80
2023-05-20T23:15:50.071Z,12.80
2023-05-20T23:18:18.279Z,12.80
2023-05-20T23:20:47.607Z,12.70
2023-05-20T23:23:16.039Z,12.70
2023-05-20T23:25:46.037Z,12.70
2023-05-20T23:28:14.104Z,12.70
2023-05-20T23:30:42.060Z,12.60
2023-05-20T23:33:10.102Z,12.60
2023-05-20T23:35:38.612Z,12.60
2023-05-20T23:38:07.595Z,12.60
2023-05-20T23:40:35.546Z,12.60
2023-05-20T23:43:04.845Z,12.60
2023-05-20T23:45:32.804Z,12.60
2023-05-20T23:48:03.251Z,12.60
2023-05-20T23:50:32.551Z,12.50
2023-05-20T23:53:00.605Z,12.50
2023-05-20T23:55:29.251Z,12.50
2023-05-20T23:57:57.232Z,12.50
